Terminal Aerodrome Forecast
Issued by NWS Wakefield, VA

Home | Current Version | Previous Version | Text Only | Print | Product List | Glossary On
Versions: 1 2 3 4 5 6 7 8 9 10 11 12 13 14 15 16 17 18
215
FTUS41 KAKQ 090547 RRA
TAFORF
TAF
KORF 090547Z 0906/1006 13004KT P6SM BKN025 BKN080
      TEMPO 0906/0908 -RA BKN020
     FM091000 26006KT P6SM BKN025 BKN050
     FM091600 25010G17KT P6SM BKN050
     FM100000 26009KT P6SM BKN050=

USA.gov is the U.S. government's official web portal to all federal, state and local government web resources and services.